Latest Coastal Weather Observations for Evans Head

IDN60701

Issued at 8:11 am EST Tuesday 31 May 2016 (issued every 10 minutes, with the page automatically refreshed every 10 minutes)

About coastal observations | Map of coastal stations | Coastal observations for NSW | Marine services | Other Formats
Station Details ID: 058212 Name: EVANS HEAD RAAF BOMBING RANGE AWS Lat: -29.18 Lon: 153.40 Height: 62.5 m
Data from the previous 72 hours. | See also: Recent months at Evans Head
Date/Time
EST
Temp

°C
Wind Pressure Rain
since 9am
mm
Weather Cloud Vis
km
Sea
Height
m
Swell
Dir
 
Speed
knots
Gust
knots
hPa Trend Height
m
Period
s
Dir
31/08:00am 14.1 WSW 6 12 1026.8 - 0.0 - - - - - - -
31/07:30am 13.5 W 7 11 1026.7 - 0.0 - - - - - - -
31/07:00am 12.8 W 7 9 1026.3 - 0.0 - - - - - - -
31/06:30am 12.7 W 7 9 1025.7 - 0.0 - - - - - - -
31/06:00am 12.4 W 7 10 1025.8 - 0.0 - - - - - - -
31/05:30am 12.2 W 8 11 1025.4 - 0.0 - - - - - - -
31/05:00am 12.2 W 9 11 1025.0 - 0.0 - - - - - - -
31/04:30am 11.8 W 9 11 1024.8 - 0.0 - - - - - - -
31/04:00am 11.8 W 8 10 1024.9 - 0.0 - - - - - - -
31/03:30am 11.9 W 9 10 1024.8 - 0.0 - - - - - - -
31/03:00am 12.5 W 8 10 1024.7 - 0.0 - - - - - - -
31/02:30am 13.3 W 8 9 1024.6 - 0.0 - - - - - - -
31/02:00am 13.6 W 8 9 1024.7 - 0.0 - - - - - - -
31/01:30am 13.9 W 8 9 1024.8 - 0.0 - - - - - - -
31/01:00am 13.7 W 8 9 1025.0 - 0.0 - - - - - - -
31/12:30am 13.9 W 7 8 1024.8 - 0.0 - - - - - - -
31/12:00am 14.2 W 7 8 1024.7 - 0.0 - - - - - - -
 
Date/Time
EST
Temp

°C
Wind Pressure Rain
since 9am
mm
Weather Cloud Vis
km
Sea
Height
m
Swell
Dir
 
Speed
knots
Gust
knots
hPa Trend Height
m
Period
s
Dir
30/11:30pm 15.0 WSW 6 7 1024.9 - 0.0 - - - - - - -
30/11:00pm 15.5 WSW 4 5 1025.0 - 0.0 - - - - - - -
30/10:30pm 15.7 W 4 5 1025.3 - 0.0 - - - - - - -
30/10:00pm 15.4 CALM 0 0 1025.3 - 0.0 - - - - - - -
30/09:30pm 16.9 CALM 0 0 1025.1 - 0.0 - - - - - - -
30/09:00pm 17.2 CALM 0 0 1025.1 - 0.0 - - - - - - -
30/08:30pm 16.8 CALM 0 0 1024.9 - 0.0 - - - - - - -
30/08:00pm 16.8 E 4 5 1024.6 - 0.0 - - - - - - -
30/07:30pm 17.0 ESE 5 5 1024.2 - 0.0 - - - - - - -
30/07:00pm 17.1 E 5 5 1024.1 - 0.0 - - - - - - -
30/06:30pm 17.0 E 4 5 1023.9 - 0.0 - - - - - - -
30/06:00pm 16.8 ENE 4 5 1023.7 - 0.0 - - - - - - -
30/05:30pm 16.9 E 4 5 1023.3 - 0.0 - - - - - - -
30/05:00pm 17.0 ESE 5 7 1023.0 - 0.0 - - - - - - -
30/04:30pm 16.9 SE 5 7 1022.8 - 0.0 - - - - - - -
30/04:00pm 17.6 SE 4 6 1022.7 - 0.0 - - - - - - -
30/03:30pm 17.8 S 5 7 1022.6 - 0.0 - - - - - - -
30/03:00pm 18.9 S 6 9 1022.3 - 0.0 - - - - - - -
30/02:30pm 19.3 S 6 8 1022.1 - 0.0 - - - - - - -
30/02:00pm 19.3 S 7 9 1022.1 - 0.0 - - - - - - -
30/01:30pm 19.5 S 7 9 1022.2 - 0.0 - - - - - - -
30/01:00pm 19.5 S 5 8 1022.5 - 0.0 - - - - - - -
30/12:30pm 20.4 SSE 6 8 1022.7 - 0.0 - - - - - - -
30/12:00pm 19.8 S 5 8 1023.0 - 0.0 - - - - - - -
30/11:30am 19.5 SSW 1 6 1023.5 - 0.0 - - - - - - -
30/11:00am 18.9 SW 4 6 1023.8 - 0.0 - - - - - - -
30/10:30am 17.8 WSW 4 6 1024.1 - 0.0 - - - - - - -
30/10:00am 16.6 W 6 8 1024.2 - 0.0 - - - - - - -
30/09:30am 15.1 W 6 8 1024.1 - 0.0 - - - - - - -
30/09:00am 13.9 W 6 9 1024.1 - 0.0 - - - - - - -
30/08:30am 12.9 WNW 5 7 1023.8 - 0.0 - - - - - - -
30/08:00am 11.9 WNW 5 7 1023.6 - 0.0 - - - - - - -
30/07:30am 10.5 WNW 7 9 1023.3 - 0.0 - - - - - - -
30/07:00am 10.1 W 6 7 1023.1 - 0.0 - - - - - - -
30/06:30am 10.3 W 7 8 1022.6 - 0.0 - - - - - - -
30/06:00am 10.5 WNW 7 8 1022.2 - 0.0 - - - - - - -
30/05:30am 10.8 WNW 8 9 1021.8 - 0.0 - - - - - - -
30/05:00am 10.8 W 7 9 1021.4 - 0.0 - - - - - - -
30/04:30am 10.3 WNW 7 9 1021.1 - 0.0 - - - - - - -
30/04:00am 10.4 WNW 7 8 1020.9 - 0.0 - - - - - - -
30/03:30am 11.0 W 7 8 1020.8 - 0.0 - - - - - - -
30/03:00am 10.8 WNW 7 8 1020.7 - 0.0 - - - - - - -
30/02:30am 10.9 WNW 6 7 1020.6 - 0.0 - - - - - - -
30/02:00am 11.5 W 7 8 1020.6 - 0.0 - - - - - - -
30/01:30am 11.7 W 7 8 1020.6 - 0.0 - - - - - - -
30/01:00am 12.0 WSW 7 9 1020.5 - 0.0 - - - - - - -
30/12:30am 12.7 W 7 9 1020.4 - 0.0 - - - - - - -
30/12:00am 13.5 W 5 6 1020.3 - 0.0 - - - - - - -
 
Date/Time
EST
Temp

°C
Wind Pressure Rain
since 9am
mm
Weather Cloud Vis
km
Sea
Height
m
Swell
Dir
 
Speed
knots
Gust
knots
hPa Trend Height
m
Period
s
Dir
29/11:30pm 13.7 W 5 6 1020.3 - 0.0 - - - - - - -
29/11:00pm 13.5 WNW 5 6 1020.4 - 0.0 - - - - - - -
29/10:30pm 14.2 NNW 3 3 1020.5 - 0.0 - - - - - - -
29/10:00pm 13.5 NNW 4 5 1020.4 - 0.0 - - - - - - -
29/09:30pm 13.1 NW 5 5 1020.2 - 0.0 - - - - - - -
29/09:00pm 13.4 NW 5 5 1020.1 - 0.0 - - - - - - -
29/08:30pm 13.8 N 4 5 1019.9 - 0.0 - - - - - - -
29/08:00pm 15.1 NE 3 5 1019.6 - 0.0 - - - - - - -
29/07:30pm 15.6 ENE 4 5 1019.3 - 0.0 - - - - - - -
29/07:00pm 15.1 NE 5 6 1018.9 - 0.0 - - - - - - -
29/06:30pm 14.9 NE 4 6 1018.5 - 0.0 - - - - - - -
29/06:00pm 14.5 NE 5 6 1018.2 - 0.0 - - - - - - -
29/05:30pm 15.1 NE 6 7 1017.8 - 0.0 - - - - - - -
29/05:00pm 15.4 NE 5 7 1017.5 - 0.0 - - - - - - -
29/04:30pm 15.9 NNE 4 7 1017.3 - 0.0 - - - - - - -
29/04:00pm 16.5 ENE 6 7 1016.9 - 0.0 - - - - - - -
29/03:30pm 17.5 NE 5 7 1016.7 - 0.0 - - - - - - -
29/03:00pm 17.9 ENE 5 7 1016.3 - 0.0 - - - - - - -
29/02:30pm 18.3 E 6 9 1016.2 - 0.0 - - - - - - -
29/02:00pm 18.5 ESE 6 8 1016.1 - 0.0 - - - - - - -
29/01:30pm 18.7 SE 6 9 1016.0 - 0.0 - - - - - - -
29/01:00pm 19.1 SE 8 12 1016.2 - 0.0 - - - - - - -
29/12:30pm 19.5 S 4 7 1016.4 - 0.0 - - - - - - -
29/12:00pm 18.9 WSW 3 6 1016.8 - 0.0 - - - - - - -
29/11:30am 17.9 SSW 6 9 1017.0 - 0.0 - - - - - - -
29/11:00am 17.4 SW 8 12 1017.1 - 0.0 - - - - - - -
29/10:30am 17.1 SW 7 11 1017.6 - 0.0 - - - - - - -
29/10:00am 16.2 WSW 9 13 1017.9 - 0.0 - - - - - - -
29/09:30am 15.1 WSW 7 11 1018.0 - 0.0 - - - - - - -
29/09:00am 14.8 WSW 9 12 1018.0 - 0.0 - - - - - - -
29/08:30am 13.9 WSW 7 12 1017.8 - 0.0 - - - - - - -
29/08:00am 12.8 W 6 8 1017.5 - 0.0 - - - - - - -
29/07:30am 11.2 WSW 7 11 1017.0 - 0.0 - - - - - - -
29/07:00am 10.5 SW 8 11 1016.5 - 0.0 - - - - - - -
29/06:30am 10.5 SW 9 12 1016.3 - 0.0 - - - - - - -
29/06:00am 9.9 WSW 8 12 1016.0 - 0.0 - - - - - - -
29/05:30am 10.4 WNW 8 12 1015.7 - 0.0 - - - - - - -
29/05:00am 10.4 WNW 8 11 1015.5 - 0.0 - - - - - - -
29/04:30am 10.4 WNW 8 11 1015.1 - 0.0 - - - - - - -
29/04:00am 10.7 WNW 7 11 1015.0 - 0.0 - - - - - - -
29/03:30am 11.0 W 7 9 1014.9 - 0.0 - - - - - - -
29/03:00am 11.3 WNW 7 11 1014.7 - 0.0 - - - - - - -
29/02:30am 11.1 WNW 7 10 1014.4 - 0.0 - - - - - - -
29/02:00am 11.2 NW 7 10 1014.6 - 0.0 - - - - - - -
29/01:30am 11.3 NW 6 8 1014.6 - 0.0 - - - - - - -
29/01:00am 11.5 NW 7 11 1014.2 - 0.0 - - - - - - -
29/12:30am 11.8 NW 7 9 1014.1 - 0.0 - - - - - - -
29/12:00am 12.2 NW 7 12 1013.8 - 0.0 - - - - - - -
 
Date/Time
EST
Temp

°C
Wind Pressure Rain
since 9am
mm
Weather Cloud Vis
km
Sea
Height
m
Swell
Dir
 
Speed
knots
Gust
knots
hPa Trend Height
m
Period
s
Dir
28/11:30pm 12.0 NW 7 10 1013.6 - 0.0 - - - - - - -
28/11:00pm 11.0 NW 8 11 1013.6 - 0.0 - - - - - - -
28/10:30pm 11.4 NNW 5 6 1013.8 - 0.0 - - - - - - -
28/10:00pm 12.4 NNW 4 7 1013.6 - 0.0 - - - - - - -
28/09:30pm 14.0 W 5 8 1013.2 - 0.0 - - - - - - -
28/09:00pm 14.3 NW 7 13 1012.7 - 0.0 - - - - - - -
28/08:30pm 14.8 NW 8 12 1012.5 - 0.0 - - - - - - -
28/08:00pm 15.8 WNW 9 15 1012.2 - 0.0 - - - - - - -
28/07:30pm 16.1 WNW 11 16 1011.6 - 0.0 - - - - - - -
28/07:00pm 15.5 WNW 7 12 1011.7 - 0.0 - - - - - - -
28/06:30pm 16.3 WNW 7 12 1011.4 - 0.0 - - - - - - -
28/06:00pm 16.7 NW 8 12 1010.7 - 0.0 - - - - - - -
28/05:30pm 16.8 NW 7 12 1010.2 - 0.0 - - - - - - -
28/05:00pm 17.5 NW 9 15 1009.5 - 0.0 - - - - - - -
28/04:30pm 18.4 NW 10 19 1009.2 - 0.0 - - - - - - -
28/04:00pm 19.2 NW 14 23 1008.8 - 0.0 - - - - - - -
28/03:32pm 19.9 NW 15 27 1008.4 - 0.0 - - - - - - -
28/03:30pm 20.0 NW 14 25 1008.4 - 0.0 - - - - - - -
28/03:07pm 20.3 NW 15 25 1008.1 - 0.0 - - - - - - -
28/03:00pm 20.6 NW 13 23 1008.1 - 0.0 - - - - - - -
28/02:30pm 21.0 NW 15 26 1007.9 - 0.0 - - - - - - -
28/02:28pm 21.1 NW 15 26 1007.9 - 0.0 - - - - - - -
28/02:00pm 21.1 NW 12 21 1007.9 - 0.0 - - - - - - -
28/01:30pm 21.1 NW 11 18 1008.4 - 0.0 - - - - - - -
28/01:00pm 20.6 NW 7 11 1008.6 - 0.0 - - - - - - -
28/12:30pm 21.5 NNW 9 21 1008.8 - 0.0 - - - - - - -
28/12:00pm 20.2 NW 9 17 1009.4 - 0.0 - - - - - - -
28/11:30am 20.1 NNW 5 8 1009.9 - 0.0 - - - - - - -
28/11:00am 20.1 NNW 6 11 1010.5 - 0.0 - - - - - - -
28/10:30am 19.3 NNW 6 11 1011.1 - 0.0 - - - - - - -
28/10:00am 18.0 NNW 7 11 1011.4 - 0.0 - - - - - - -
28/09:30am 17.3 NNW 7 11 1011.9 - 0.0 - - - - - - -
28/09:00am 15.7 NNW 7 11 1011.7 - 0.0 - - - - - - -
28/08:30am 14.2 NNW 8 13 1011.8 - 0.0 - - - - - - -

Other Formats:

Comma delimited format used in spreadsheet applications
http://www.bom.gov.au/fwo/IDN60701/IDN60701.94598.axf

JavaScript Object Notation format (JSON) in row-major order
http://www.bom.gov.au/fwo/IDN60701/IDN60701.94598.json